createdAt,value
2022-11-19T00:02:12.549Z,17.10
2022-11-19T00:04:41.150Z,18.48
2022-11-19T00:07:10.718Z,17.80
2022-11-19T00:09:38.770Z,18.67
2022-11-19T00:12:24.931Z,18.55
2022-11-19T00:14:53.131Z,18.05
2022-11-19T00:17:22.464Z,17.02
2022-11-19T00:19:50.819Z,15.95
2022-11-19T00:22:20.507Z,17.50
2022-11-19T00:24:49.086Z,17.45
2022-11-19T00:27:18.382Z,17.45
2022-11-19T00:29:46.582Z,15.85
2022-11-19T00:32:15.667Z,15.60
2022-11-19T00:34:43.831Z,16.33
2022-11-19T00:37:12.210Z,16.08
2022-11-19T00:39:41.645Z,16.77
2022-11-19T00:42:11.448Z,15.02
2022-11-19T00:44:39.503Z,15.68
2022-11-19T00:47:10.363Z,15.75
2022-11-19T00:49:40.837Z,15.13
2022-11-19T00:52:11.743Z,15.75
2022-11-19T00:54:45.345Z,16.35
2022-11-19T00:57:13.886Z,16.95
2022-11-19T00:59:42.462Z,16.42
2022-11-19T01:02:10.399Z,16.13
2022-11-19T01:04:38.787Z,16.38
2022-11-19T01:07:06.781Z,14.93
2022-11-19T01:09:35.496Z,15.27
2022-11-19T01:12:05.262Z,14.95
2022-11-19T01:14:33.272Z,15.18
2022-11-19T01:17:01.272Z,14.40
2022-11-19T01:19:29.900Z,15.38
2022-11-19T01:21:58.353Z,15.40
2022-11-19T01:24:26.351Z,15.18
2022-11-19T01:26:54.725Z,13.70
2022-11-19T01:29:26.838Z,15.13
2022-11-19T01:31:54.781Z,16.15
2022-11-19T01:34:24.445Z,14.80
2022-11-19T01:36:53.796Z,15.55
2022-11-19T01:39:22.023Z,15.18
2022-11-19T01:41:51.281Z,14.77
2022-11-19T01:45:00.578Z,15.10
2022-11-19T01:47:28.941Z,13.75
2022-11-19T01:49:58.343Z,13.93
2022-11-19T01:52:26.289Z,15.27
2022-11-19T01:54:55.455Z,15.30
2022-11-19T01:57:23.829Z,15.10
2022-11-19T01:59:52.825Z,14.25
2022-11-19T02:02:24.692Z,15.00
2022-11-19T02:04:59.303Z,15.00
2022-11-19T02:07:29.464Z,16.00
2022-11-19T02:09:58.740Z,14.88
2022-11-19T02:12:35.936Z,14.30
2022-11-19T02:15:11.986Z,14.77
2022-11-19T02:17:51.038Z,15.00
2022-11-19T02:20:53.457Z,14.50
2022-11-19T02:23:44.828Z,14.27
2022-11-19T02:26:29.919Z,13.75
2022-11-19T02:29:08.735Z,14.25
2022-11-19T02:31:40.802Z,13.75
2022-11-19T02:34:13.056Z,13.52
2022-11-19T02:36:47.654Z,14.07
2022-11-19T02:39:20.170Z,13.23
2022-11-19T02:41:54.821Z,15.02
2022-11-19T02:44:45.662Z,14.65
2022-11-19T02:47:18.584Z,14.15
2022-11-19T02:49:46.785Z,14.35
2022-11-19T02:52:15.643Z,14.07
2022-11-19T02:54:43.693Z,13.48
2022-11-19T02:57:13.740Z,14.10
2022-11-19T03:00:01.474Z,14.50
2022-11-19T03:02:51.629Z,13.30
2022-11-19T03:05:22.055Z,11.82
2022-11-19T03:07:50.484Z,13.75
2022-11-19T03:10:22.474Z,13.10
2022-11-19T03:12:53.465Z,12.93
2022-11-19T03:15:46.549Z,13.20
2022-11-19T03:18:19.216Z,13.60
2022-11-19T03:20:50.641Z,13.50
2022-11-19T03:23:23.334Z,14.60
2022-11-19T03:25:54.911Z,13.80
2022-11-19T03:28:25.593Z,13.27
2022-11-19T03:30:55.207Z,14.30
2022-11-19T03:33:25.999Z,13.07
2022-11-19T03:35:59.373Z,13.70
2022-11-19T03:38:30.979Z,12.70
2022-11-19T03:40:59.165Z,12.90
2022-11-19T03:43:30.514Z,12.95
2022-11-19T03:46:02.920Z,13.38
2022-11-19T03:48:33.003Z,13.90
2022-11-19T03:51:07.659Z,13.20
2022-11-19T03:53:36.008Z,12.55
2022-11-19T03:56:07.060Z,13.10
2022-11-19T03:58:39.935Z,13.48
2022-11-19T04:01:09.299Z,13.35
2022-11-19T04:03:39.272Z,13.32
2022-11-19T04:06:08.365Z,12.93
2022-11-19T04:08:38.786Z,13.13
2022-11-19T04:13:36.571Z,12.77
2022-11-19T04:16:06.487Z,12.45
2022-11-19T04:18:35.836Z,12.60
2022-11-19T04:21:05.466Z,12.38
2022-11-19T04:23:33.618Z,13.23
2022-11-19T04:26:01.659Z,12.93
2022-11-19T04:28:29.575Z,12.38
2022-11-19T04:30:57.773Z,11.90
2022-11-19T04:33:27.030Z,12.05
2022-11-19T04:35:55.127Z,13.18
2022-11-19T04:38:25.653Z,11.60
2022-11-19T04:40:53.700Z,13.55
2022-11-19T04:43:22.191Z,13.07
2022-11-19T04:45:50.705Z,11.70
2022-11-19T04:48:20.193Z,12.77
2022-11-19T04:50:48.580Z,12.82
2022-11-19T04:53:16.958Z,12.05
2022-11-19T04:55:46.758Z,12.82
2022-11-19T04:58:15.429Z,12.63
2022-11-19T05:00:44.785Z,13.23
2022-11-19T05:03:13.049Z,12.65
2022-11-19T05:05:42.398Z,13.23
2022-11-19T05:08:10.887Z,11.95
2022-11-19T05:10:40.047Z,12.30
2022-11-19T05:13:10.045Z,10.88
2022-11-19T05:15:38.014Z,12.50
2022-11-19T05:18:06.226Z,12.23
2022-11-19T05:20:34.296Z,11.27
2022-11-19T05:23:02.584Z,11.95
2022-11-19T05:25:30.674Z,11.38
2022-11-19T05:27:59.326Z,12.35
2022-11-19T05:30:28.908Z,14.00
2022-11-19T05:32:57.567Z,12.98
2022-11-19T05:35:25.599Z,12.98
2022-11-19T05:37:54.650Z,12.13
2022-11-19T05:40:23.093Z,12.70
2022-11-19T05:42:51.323Z,12.82
2022-11-19T05:45:19.281Z,14.48
2022-11-19T05:47:49.011Z,12.50
2022-11-19T05:50:20.125Z,12.15
2022-11-19T05:52:50.777Z,11.88
2022-11-19T05:55:20.820Z,11.02
2022-11-19T05:57:51.534Z,12.60
2022-11-19T06:00:21.982Z,11.55
2022-11-19T06:02:51.501Z,12.38
2022-11-19T06:05:20.582Z,12.60
2022-11-19T06:07:48.595Z,10.93
2022-11-19T06:10:18.821Z,11.05
2022-11-19T06:12:48.361Z,11.45
2022-11-19T06:15:20.332Z,12.25
2022-11-19T06:17:49.658Z,11.50
2022-11-19T06:20:19.654Z,12.02
2022-11-19T06:22:47.710Z,10.52
2022-11-19T06:25:17.333Z,11.85
2022-11-19T06:27:46.249Z,10.85
2022-11-19T06:30:16.100Z,10.93
2022-11-19T06:32:44.389Z,12.68
2022-11-19T06:35:14.491Z,10.30
2022-11-19T06:37:44.122Z,11.77
2022-11-19T06:40:14.850Z,11.23
2022-11-19T06:42:46.116Z,12.27
2022-11-19T06:45:16.913Z,10.75
2022-11-19T06:47:51.309Z,9.77
2022-11-19T06:50:19.797Z,11.65
2022-11-19T06:52:51.408Z,12.27
2022-11-19T06:57:48.946Z,11.18
2022-11-19T07:00:18.316Z,10.68
2022-11-19T07:02:49.047Z,11.05
2022-11-19T07:05:16.999Z,11.63
2022-11-19T07:07:47.862Z,11.65
2022-11-19T07:10:17.759Z,12.80
2022-11-19T07:12:47.548Z,11.82
2022-11-19T07:15:18.881Z,11.65
2022-11-19T07:17:46.900Z,12.20
2022-11-19T07:20:14.922Z,12.93
2022-11-19T07:22:44.408Z,12.82
2022-11-19T07:25:13.899Z,12.50
2022-11-19T07:27:49.431Z,12.95
2022-11-19T07:30:18.554Z,11.85
2022-11-19T07:32:47.315Z,11.40
2022-11-19T07:35:16.062Z,11.73
2022-11-19T07:37:44.594Z,11.25
2022-11-19T07:40:14.945Z,12.18
2022-11-19T07:42:50.720Z,11.32
2022-11-19T07:45:20.868Z,12.27
2022-11-19T07:47:49.398Z,12.27
2022-11-19T07:50:19.311Z,11.77
2022-11-19T07:52:47.685Z,12.07
2022-11-19T07:55:16.171Z,12.48
2022-11-19T07:57:45.659Z,11.68
2022-11-19T08:00:15.507Z,13.77
2022-11-19T08:02:43.511Z,14.20
2022-11-19T08:05:12.144Z,13.18
2022-11-19T08:07:40.359Z,13.00
2022-11-19T08:10:11.059Z,13.45
2022-11-19T08:12:40.073Z,13.85
2022-11-19T08:15:15.394Z,12.50
2022-11-19T08:18:01.163Z,13.77
2022-11-19T08:20:29.348Z,12.98
2022-11-19T08:22:58.878Z,14.50
2022-11-19T08:25:27.274Z,13.85
2022-11-19T08:27:55.451Z,15.10
2022-11-19T08:30:24.996Z,13.65
2022-11-19T08:32:53.614Z,12.07
2022-11-19T08:35:22.096Z,11.43
2022-11-19T08:37:54.002Z,11.75
2022-11-19T08:40:23.619Z,12.30
2022-11-19T08:43:01.542Z,11.60
2022-11-19T08:45:32.783Z,10.77
2022-11-19T08:48:04.548Z,11.10
2022-11-19T08:50:33.621Z,10.70
2022-11-19T08:53:03.700Z,13.35
2022-11-19T08:55:34.377Z,10.95
2022-11-19T08:58:03.421Z,11.43
2022-11-19T09:00:34.625Z,11.95
2022-11-19T09:03:03.065Z,11.90
2022-11-19T09:05:31.750Z,11.68
2022-11-19T09:08:01.880Z,11.50
2022-11-19T09:10:31.643Z,12.18
2022-11-19T09:13:00.960Z,11.23
2022-11-19T09:15:29.639Z,14.13
2022-11-19T09:18:02.351Z,13.15
2022-11-19T09:20:30.367Z,13.25
2022-11-19T09:23:00.399Z,12.32
2022-11-19T09:25:29.297Z,11.60
2022-11-19T09:27:57.873Z,12.20
2022-11-19T09:30:26.125Z,11.70
2022-11-19T09:32:56.507Z,10.27
2022-11-19T09:35:26.096Z,10.65
2022-11-19T09:37:54.437Z,10.10
2022-11-19T09:40:23.692Z,10.52
2022-11-19T09:43:01.491Z,11.05
2022-11-19T09:45:41.761Z,10.50
2022-11-19T09:48:19.361Z,10.02
2022-11-19T09:50:54.363Z,10.68
2022-11-19T09:53:23.807Z,9.98
2022-11-19T09:56:01.347Z,9.88
2022-11-19T09:58:35.735Z,9.63
2022-11-19T10:01:06.300Z,8.77
2022-11-19T10:03:40.359Z,7.50
2022-11-19T10:06:30.479Z,8.18
2022-11-19T10:09:10.410Z,8.45
2022-11-19T10:11:48.632Z,8.85
2022-11-19T10:14:29.897Z,8.43
2022-11-19T10:17:03.670Z,8.13
2022-11-19T10:19:42.099Z,7.85
2022-11-19T10:22:18.940Z,8.75
2022-11-19T10:24:52.958Z,8.48
2022-11-19T10:27:25.852Z,8.70
2022-11-19T10:29:55.973Z,8.40
2022-11-19T10:32:33.500Z,8.80
2022-11-19T10:35:05.058Z,8.15
2022-11-19T10:37:46.444Z,7.70
2022-11-19T10:40:17.343Z,7.95
2022-11-19T10:42:54.301Z,7.65
2022-11-19T10:45:24.283Z,7.35
2022-11-19T10:47:56.575Z,6.95
2022-11-19T10:50:25.789Z,6.93
2022-11-19T10:52:57.284Z,6.85
2022-11-19T10:55:29.604Z,6.78
2022-11-19T10:58:07.494Z,6.45
2022-11-19T11:00:36.850Z,6.78
2022-11-19T11:03:09.621Z,5.93
2022-11-19T11:05:55.509Z,5.72
2022-11-19T11:08:25.380Z,6.18
2022-11-19T11:10:54.508Z,5.85
2022-11-19T11:13:47.499Z,5.57
2022-11-19T11:16:19.297Z,6.20
2022-11-19T11:18:47.982Z,6.32
2022-11-19T11:21:30.906Z,5.88
2022-11-19T11:24:02.641Z,5.47
2022-11-19T11:26:33.760Z,6.18
2022-11-19T11:29:08.875Z,5.93
2022-11-19T11:31:40.248Z,5.47
2022-11-19T11:34:15.908Z,5.55
2022-11-19T11:36:47.277Z,5.45
2022-11-19T11:39:27.639Z,5.97
2022-11-19T11:42:16.016Z,5.68
2022-11-19T11:44:52.744Z,5.97
2022-11-19T11:47:22.447Z,5.68
2022-11-19T11:50:01.208Z,5.90
2022-11-19T11:52:32.573Z,5.57
2022-11-19T11:55:04.453Z,6.40
2022-11-19T11:57:36.744Z,6.05
2022-11-19T12:02:37.015Z,6.00
2022-11-19T12:05:07.451Z,5.10
2022-11-19T12:08:06.309Z,5.47
2022-11-19T12:10:52.647Z,5.55
2022-11-19T12:13:51.666Z,6.03
2022-11-19T12:16:30.107Z,6.07
2022-11-19T12:19:11.884Z,5.88
2022-11-19T12:21:50.161Z,6.25
2022-11-19T12:24:30.505Z,5.00
2022-11-19T12:27:08.266Z,5.65
2022-11-19T12:29:42.624Z,5.82
2022-11-19T12:32:25.310Z,5.63
2022-11-19T12:35:10.898Z,5.35
2022-11-19T12:37:53.237Z,5.45
2022-11-19T12:43:31.638Z,5.45
2022-11-19T12:46:10.586Z,5.60
2022-11-19T12:48:47.606Z,5.40
2022-11-19T12:51:24.262Z,4.68
2022-11-19T12:54:06.932Z,5.47
2022-11-19T12:59:45.071Z,4.30
2022-11-19T13:02:17.958Z,5.03
2022-11-19T13:04:52.610Z,4.85
2022-11-19T13:07:23.133Z,4.85
2022-11-19T13:09:53.403Z,4.63
2022-11-19T13:12:24.300Z,5.40
2022-11-19T13:15:00.283Z,4.68
2022-11-19T13:17:31.334Z,5.35
2022-11-19T13:20:04.720Z,4.60
2022-11-19T13:22:36.407Z,5.18
2022-11-19T13:25:18.815Z,4.97
2022-11-19T13:30:29.170Z,5.15
2022-11-19T13:33:06.746Z,5.53
2022-11-19T13:35:39.497Z,5.32
2022-11-19T13:38:16.280Z,5.38
2022-11-19T13:40:49.099Z,5.47
2022-11-19T13:43:36.685Z,5.60
2022-11-19T13:46:16.441Z,6.00
2022-11-19T13:48:49.442Z,5.68
2022-11-19T13:51:28.062Z,5.40
2022-11-19T13:54:02.694Z,5.28
2022-11-19T13:56:43.399Z,5.25
2022-11-19T13:59:26.279Z,5.75
2022-11-19T14:02:03.340Z,6.25
2022-11-19T14:04:58.396Z,6.07
2022-11-19T14:07:44.525Z,6.13
2022-11-19T14:10:18.534Z,5.80
2022-11-19T14:13:04.646Z,5.20
2022-11-19T14:16:01.894Z,6.00
2022-11-19T14:18:54.547Z,5.38
2022-11-19T14:22:01.600Z,6.03
2022-11-19T14:25:10.149Z,5.60
2022-11-19T14:27:40.006Z,6.20
2022-11-19T14:30:10.904Z,6.13
2022-11-19T14:32:47.563Z,6.10
2022-11-19T14:35:42.912Z,5.40
2022-11-19T14:38:34.550Z,5.75
2022-11-19T14:41:23.362Z,5.68
2022-11-19T14:44:10.671Z,5.15
2022-11-19T14:46:44.563Z,5.43
2022-11-19T14:49:42.382Z,6.35
2022-11-19T14:52:22.200Z,5.80
2022-11-19T14:54:55.472Z,5.70
2022-11-19T14:57:29.810Z,5.28
2022-11-19T15:00:00.237Z,5.72
2022-11-19T15:02:32.261Z,5.88
2022-11-19T15:05:05.461Z,5.90
2022-11-19T15:07:42.557Z,5.97
2022-11-19T15:10:30.562Z,5.22
2022-11-19T15:13:21.936Z,5.97
2022-11-19T15:15:53.019Z,7.35
2022-11-19T15:18:58.595Z,6.13
2022-11-19T15:22:08.605Z,5.25
2022-11-19T15:24:51.163Z,5.85
2022-11-19T15:27:27.838Z,5.60
2022-11-19T15:30:14.028Z,6.20
2022-11-19T15:33:03.643Z,5.95
2022-11-19T15:35:49.820Z,5.88
2022-11-19T15:38:29.547Z,5.75
2022-11-19T15:41:01.977Z,5.85
2022-11-19T15:43:32.432Z,5.93
2022-11-19T15:46:07.878Z,5.97
2022-11-19T15:48:40.794Z,5.88
2022-11-19T15:51:13.103Z,5.68
2022-11-19T15:53:58.438Z,6.47
2022-11-19T15:56:30.985Z,6.00
2022-11-19T15:59:01.595Z,5.85
2022-11-19T16:01:32.275Z,5.82
2022-11-19T16:04:04.923Z,5.85
2022-11-19T16:06:36.330Z,6.50
2022-11-19T16:09:08.030Z,6.55
2022-11-19T16:11:58.922Z,7.22
2022-11-19T16:14:47.338Z,7.45
2022-11-19T16:17:39.724Z,6.78
2022-11-19T16:20:21.808Z,7.55
2022-11-19T16:22:56.784Z,5.45
2022-11-19T16:25:37.381Z,7.20
2022-11-19T16:28:14.001Z,6.75
2022-11-19T16:30:50.592Z,7.50
2022-11-19T16:33:20.949Z,6.72
2022-11-19T16:35:52.867Z,7.07
2022-11-19T16:38:30.814Z,8.50
2022-11-19T16:41:17.839Z,7.18
2022-11-19T16:43:49.431Z,6.43
2022-11-19T16:46:20.886Z,7.57
2022-11-19T16:48:59.055Z,7.78
2022-11-19T16:51:39.947Z,7.97
2022-11-19T16:54:10.761Z,8.80
2022-11-19T16:56:42.300Z,9.02
2022-11-19T16:59:18.745Z,8.63
2022-11-19T17:01:53.516Z,9.90
2022-11-19T17:04:22.697Z,10.57
2022-11-19T17:06:52.051Z,10.55
2022-11-19T17:09:37.195Z,9.75
2022-11-19T17:12:23.037Z,10.02
2022-11-19T17:14:55.387Z,8.45
2022-11-19T17:17:40.284Z,9.23
2022-11-19T17:20:48.313Z,9.18
2022-11-19T17:23:19.402Z,7.47
2022-11-19T17:25:49.489Z,9.40
2022-11-19T17:28:21.601Z,9.07
2022-11-19T17:33:23.658Z,8.80
2022-11-19T17:35:52.468Z,9.85
2022-11-19T17:38:23.947Z,9.05
2022-11-19T17:40:53.774Z,9.43
2022-11-19T17:43:42.731Z,8.90
2022-11-19T17:46:12.959Z,10.75
2022-11-19T17:48:47.196Z,9.80
2022-11-19T17:51:17.325Z,10.07
2022-11-19T17:53:46.018Z,8.98
2022-11-19T17:56:19.927Z,10.93
2022-11-19T17:58:48.590Z,11.02
2022-11-19T18:01:19.861Z,11.52
2022-11-19T18:03:48.752Z,10.43
2022-11-19T18:06:18.253Z,11.50
2022-11-19T18:08:48.104Z,10.05
2022-11-19T18:11:18.788Z,9.25
2022-11-19T18:13:54.413Z,10.23
2022-11-19T18:16:26.717Z,11.85
2022-11-19T18:21:28.182Z,10.20
2022-11-19T18:23:57.742Z,10.23
2022-11-19T18:26:27.182Z,11.07
2022-11-19T18:28:56.567Z,11.20
2022-11-19T18:31:28.056Z,11.18
2022-11-19T18:33:57.390Z,12.18
2022-11-19T18:36:27.137Z,10.40
2022-11-19T18:38:57.647Z,12.95
2022-11-19T18:41:26.910Z,12.75
2022-11-19T18:44:13.061Z,14.43
2022-11-19T18:46:42.695Z,14.85
2022-11-19T18:49:15.575Z,13.63
2022-11-19T18:51:44.475Z,12.63
2022-11-19T18:54:12.895Z,11.27
2022-11-19T18:56:42.140Z,10.98
2022-11-19T18:59:12.251Z,12.25
2022-11-19T19:01:45.498Z,12.48
2022-11-19T19:04:15.267Z,10.90
2022-11-19T19:06:44.504Z,12.32
2022-11-19T19:09:19.496Z,12.60
2022-11-19T19:12:12.291Z,14.00
2022-11-19T19:14:41.724Z,12.60
2022-11-19T19:17:12.896Z,12.35
2022-11-19T19:19:43.288Z,12.23
2022-11-19T19:22:14.887Z,12.00
2022-11-19T19:24:47.120Z,11.57
2022-11-19T19:27:16.819Z,10.85
2022-11-19T19:29:47.876Z,10.60
2022-11-19T19:32:18.364Z,11.35
2022-11-19T19:34:46.579Z,10.30
2022-11-19T19:37:15.363Z,12.13
2022-11-19T19:39:43.638Z,10.75
2022-11-19T19:42:13.303Z,10.57
2022-11-19T19:44:42.076Z,9.85
2022-11-19T19:47:10.552Z,9.88
2022-11-19T19:49:39.811Z,9.43
2022-11-19T19:52:08.102Z,10.25
2022-11-19T19:54:37.234Z,11.13
2022-11-19T19:57:07.856Z,9.93
2022-11-19T19:59:36.006Z,11.02
2022-11-19T20:02:04.146Z,11.75
2022-11-19T20:04:34.059Z,10.10
2022-11-19T20:07:05.659Z,10.93
2022-11-19T20:09:37.180Z,10.07
2022-11-19T20:12:05.676Z,10.50
2022-11-19T20:14:36.245Z,10.88
2022-11-19T20:17:04.757Z,10.55
2022-11-19T20:19:33.684Z,10.10
2022-11-19T20:22:04.041Z,10.93
2022-11-19T20:24:34.748Z,9.35
2022-11-19T20:27:03.293Z,10.07
2022-11-19T20:29:31.722Z,10.00
2022-11-19T20:32:01.355Z,9.13
2022-11-19T20:34:29.524Z,10.85
2022-11-19T20:36:57.841Z,9.75
2022-11-19T20:39:27.392Z,10.88
2022-11-19T20:42:13.097Z,10.30
2022-11-19T20:44:42.343Z,10.27
2022-11-19T20:47:10.322Z,9.80
2022-11-19T20:49:40.406Z,11.52
2022-11-19T20:52:10.769Z,10.93
2022-11-19T20:54:41.856Z,10.70
2022-11-19T20:57:10.531Z,11.25
2022-11-19T20:59:38.619Z,11.40
2022-11-19T21:02:07.325Z,11.32
2022-11-19T21:04:37.302Z,10.82
2022-11-19T21:07:08.288Z,11.25
2022-11-19T21:09:37.744Z,11.05
2022-11-19T21:12:07.387Z,10.70
2022-11-19T21:14:36.047Z,11.98
2022-11-19T21:17:04.280Z,12.23
2022-11-19T21:19:32.569Z,11.15
2022-11-19T21:22:01.292Z,11.13
2022-11-19T21:24:32.699Z,11.48
2022-11-19T21:27:00.830Z,11.43
2022-11-19T21:29:33.242Z,10.63
2022-11-19T21:32:02.193Z,11.90
2022-11-19T21:34:31.532Z,10.95
2022-11-19T21:37:00.128Z,11.35
2022-11-19T21:39:28.341Z,11.10
2022-11-19T21:41:57.020Z,11.43
2022-11-19T21:44:26.381Z,11.18
2022-11-19T21:46:57.850Z,11.55
2022-11-19T21:49:26.233Z,11.20
2022-11-19T21:51:55.485Z,11.30
2022-11-19T21:54:26.313Z,12.20
2022-11-19T21:56:55.269Z,11.20
2022-11-19T21:59:23.433Z,12.23
2022-11-19T22:01:54.883Z,11.32
2022-11-19T22:04:24.814Z,11.60
2022-11-19T22:06:53.633Z,12.30
2022-11-19T22:09:23.609Z,12.20
2022-11-19T22:11:51.578Z,11.27
2022-11-19T22:14:19.861Z,11.55
2022-11-19T22:16:48.200Z,11.32
2022-11-19T22:19:16.445Z,11.18
2022-11-19T22:21:46.666Z,11.85
2022-11-19T22:24:16.432Z,11.50
2022-11-19T22:26:44.795Z,11.65
2022-11-19T22:29:13.084Z,10.65
2022-11-19T22:31:41.568Z,11.30
2022-11-19T22:34:12.212Z,12.65
2022-11-19T22:36:43.646Z,11.77
2022-11-19T22:39:15.830Z,11.60
2022-11-19T22:41:45.006Z,13.00
2022-11-19T22:44:15.531Z,12.77
2022-11-19T22:46:46.528Z,11.30
2022-11-19T22:49:16.151Z,12.00
2022-11-19T22:51:46.155Z,11.73
2022-11-19T22:54:16.065Z,11.98
2022-11-19T22:56:45.997Z,12.05
2022-11-19T22:59:14.461Z,11.68
2022-11-19T23:01:43.703Z,12.13
2022-11-19T23:04:15.517Z,12.05
2022-11-19T23:06:45.374Z,12.05
2022-11-19T23:09:15.525Z,11.95
2022-11-19T23:12:00.875Z,12.35
2022-11-19T23:14:33.411Z,11.80
2022-11-19T23:17:05.052Z,11.98
2022-11-19T23:19:36.023Z,12.55
2022-11-19T23:22:05.600Z,11.45
2022-11-19T23:24:35.012Z,11.70
2022-11-19T23:27:03.410Z,11.80
2022-11-19T23:29:31.671Z,12.00
2022-11-19T23:31:59.883Z,11.75
2022-11-19T23:34:31.984Z,11.30
2022-11-19T23:37:03.615Z,13.05
2022-11-19T23:39:31.746Z,12.30
2022-11-19T23:42:01.003Z,11.85
2022-11-19T23:44:32.963Z,10.93
2022-11-19T23:47:01.210Z,11.32
2022-11-19T23:49:29.893Z,11.60
2022-11-19T23:51:59.418Z,13.02
2022-11-19T23:54:31.551Z,12.95
2022-11-19T23:57:05.841Z,11.93
2022-11-19T23:59:34.856Z,11.88
